Time;durP1;ratioP1;P1;durP2;ratioP2;P2;SDS_P1;SDS_P2;PMS_P1;PMS_P2;Temp;Humidity;BMP_temperature;BMP_pressure;BME280_temperature;BME280_humidity;BME280_pressure;Samples;Min_cycle;Max_cycle;Signal;HPM_P1;HPM_P2
2022/04/22 00:00:56;;;;;;;12.13;4.47;;;10.20;99.90;;;;;;5110701;27;20056;-66
2022/04/22 00:03:22;;;;;;;11.20;4.32;;;10.10;99.90;;;;;;5129686;27;20047;-66
2022/04/22 00:05:48;;;;;;;10.15;4.50;;;10.10;99.90;;;;;;5130966;27;20495;-66
2022/04/22 00:08:13;;;;;;;11.50;5.07;;;10.10;99.90;;;;;;5111627;27;20045;-66
2022/04/22 00:13:24;;;;;;;10.10;4.32;;;10.20;99.90;;;;;;5100332;28;20402;-67
2022/04/22 00:15:50;;;;;;;10.52;4.75;;;10.20;99.90;;;;;;5090068;28;20065;-67
2022/04/22 00:18:15;;;;;;;7.65;4.10;;;10.20;99.90;;;;;;5108150;28;20642;-66
2022/04/22 00:20:41;;;;;;;11.38;4.45;;;10.10;99.90;;;;;;5073091;28;20036;-66
2022/04/22 00:23:07;;;;;;;9.40;3.97;;;10.00;99.90;;;;;;5090519;28;20050;-66
2022/04/22 00:25:37;;;;;;;;;;;9.90;99.90;;;;;;5091302;28;20398;-67
2022/04/22 00:28:02;;;;;;;7.57;4.35;;;9.80;99.90;;;;;;5107919;28;19996;-66
2022/04/22 00:30:29;;;;;;;16.27;4.68;;;9.70;99.90;;;;;;5108412;28;20096;-66
2022/04/22 00:32:54;;;;;;;15.43;4.25;;;9.70;99.90;;;;;;5107313;28;20367;-66
2022/04/22 00:35:20;;;;;;;9.05;4.20;;;9.60;99.90;;;;;;5089504;28;20097;-66
2022/04/22 00:37:47;;;;;;;9.20;4.00;;;9.60;99.90;;;;;;5107843;28;20075;-66
2022/04/22 00:40:13;;;;;;;8.85;4.63;;;9.60;99.90;;;;;;5107495;28;20036;-67
2022/04/22 00:42:39;;;;;;;11.13;4.50;;;9.60;99.90;;;;;;5108474;28;20039;-66
2022/04/22 00:45:06;;;;;;;9.68;3.78;;;9.60;99.90;;;;;;5099919;28;20395;-66
2022/04/22 00:47:31;;;;;;;12.00;5.00;;;9.60;99.90;;;;;;5108100;28;20112;-66
2022/04/22 00:49:57;;;;;;;9.05;4.55;;;9.60;99.90;;;;;;5105703;28;20048;-66
2022/04/22 00:52:24;;;;;;;9.52;4.05;;;9.50;99.90;;;;;;5107764;28;20046;-66
2022/04/22 00:54:50;;;;;;;7.03;3.90;;;9.50;99.90;;;;;;5107149;28;20577;-66
2022/04/22 00:57:18;;;;;;;8.93;4.32;;;9.50;99.90;;;;;;5105605;28;20367;-67
2022/04/22 00:59:45;;;;;;;9.30;4.15;;;9.50;99.90;;;;;;5107257;28;20645;-66
2022/04/22 01:02:10;;;;;;;12.00;4.45;;;9.40;99.90;;;;;;5102168;28;20044;-66
2022/04/22 01:10:11;;;;;;;9.10;3.90;;;9.20;99.90;;;;;;5107872;27;20039;-66
2022/04/22 01:12:37;;;;;;;7.60;4.03;;;9.10;99.90;;;;;;5126887;27;20051;-67
2022/04/22 01:15:03;;;;;;;13.43;4.43;;;9.10;99.90;;;;;;5126857;27;20069;-66
2022/04/22 01:17:31;;;;;;;13.32;4.90;;;9.00;99.90;;;;;;5127021;27;20043;-67
2022/04/22 01:19:57;;;;;;;10.38;3.88;;;9.00;99.90;;;;;;5125996;27;20047;-66
2022/04/22 01:22:23;;;;;;;4.80;3.78;;;9.00;99.90;;;;;;5126660;27;20447;-67
2022/04/22 01:24:53;;;;;;;8.35;3.80;;;9.00;99.90;;;;;;5126216;27;20046;-66
2022/04/22 01:27:19;;;;;;;10.65;4.45;;;8.90;99.90;;;;;;5126745;27;20043;-66
2022/04/22 01:29:45;;;;;;;9.70;4.80;;;8.80;99.90;;;;;;5101359;28;20127;-66
2022/04/22 01:32:11;;;;;;;11.40;4.53;;;8.80;99.90;;;;;;5125464;27;20146;-67
2022/04/22 01:34:38;;;;;;;6.85;4.07;;;8.80;99.90;;;;;;5108592;27;20156;-66
2022/04/22 01:37:04;;;;;;;7.85;4.50;;;8.70;99.90;;;;;;5108457;27;20396;-67
2022/04/22 01:39:32;;;;;;;10.85;3.97;;;8.60;99.90;;;;;;5127274;27;20039;-67
2022/04/22 01:41:58;;;;;;;7.57;4.60;;;8.60;99.90;;;;;;5128083;27;20051;-66
2022/04/22 01:44:25;;;;;;;8.65;4.60;;;8.50;99.90;;;;;;5108413;27;20046;-66
2022/04/22 01:46:52;;;;;;;7.10;4.38;;;8.50;99.90;;;;;;5109270;28;20050;-66
2022/04/22 01:49:18;;;;;;;11.90;4.65;;;8.50;99.90;;;;;;5126466;27;20035;-66
2022/04/22 01:51:44;;;;;;;11.20;4.68;;;8.50;99.90;;;;;;5126841;27;20527;-67
2022/04/22 01:54:11;;;;;;;10.07;4.47;;;8.40;99.90;;;;;;5104817;28;20044;-66
2022/04/22 01:56:36;;;;;;;10.45;3.80;;;8.40;99.90;;;;;;5106889;28;20375;-67
2022/04/22 01:59:02;;;;;;;8.40;4.15;;;8.30;99.90;;;;;;5106453;28;20038;-66
2022/04/22 02:01:28;;;;;;;9.18;4.13;;;8.30;99.90;;;;;;5112852;28;20040;-67
2022/04/22 02:03:54;;;;;;;7.30;3.70;;;8.30;99.90;;;;;;5105255;28;20454;-67
2022/04/22 02:06:20;;;;;;;14.00;4.95;;;8.30;99.90;;;;;;5106084;28;20520;-66
2022/04/22 02:08:45;;;;;;;11.65;4.30;;;8.30;99.90;;;;;;5105847;28;20040;-66
2022/04/22 02:11:11;;;;;;;11.90;4.38;;;8.30;99.90;;;;;;5105986;28;20091;-66
2022/04/22 02:13:37;;;;;;;9.13;4.10;;;8.20;99.90;;;;;;5106858;28;20130;-66
2022/04/22 02:16:06;;;;;;;6.68;3.85;;;8.30;99.90;;;;;;5106533;28;20583;-66
2022/04/22 02:18:36;;;;;;;8.52;4.07;;;8.20;99.90;;;;;;5104959;28;20043;-66
2022/04/22 02:21:04;;;;;;;6.55;4.00;;;8.20;99.90;;;;;;5106986;28;20044;-67
2022/04/22 02:23:30;;;;;;;8.73;3.78;;;8.10;99.90;;;;;;5105084;28;20732;-66
2022/04/22 02:25:55;;;;;;;6.63;3.80;;;8.10;99.90;;;;;;5106142;28;20307;-66
2022/04/22 02:28:33;;;;;;;11.50;3.83;;;8.10;99.90;;;;;;5104568;28;20039;-66
2022/04/22 02:31:05;;;;;;;9.73;4.22;;;8.10;99.90;;;;;;5106138;28;20392;-66
2022/04/22 02:33:32;;;;;;;9.23;4.78;;;8.10;99.90;;;;;;5106604;28;20032;-66
2022/04/22 02:35:59;;;;;;;6.47;3.70;;;8.10;99.90;;;;;;5103166;28;20523;-66
2022/04/22 02:38:27;;;;;;;11.27;4.03;;;8.10;99.90;;;;;;5105754;28;20727;-67
2022/04/22 02:46:22;;;;;;;7.93;3.92;;;8.10;99.90;;;;;;5102984;28;20130;-66
2022/04/22 02:48:48;;;;;;;7.93;3.90;;;8.10;99.90;;;;;;5106385;28;20047;-66
2022/04/22 02:51:14;;;;;;;12.38;5.05;;;8.10;99.90;;;;;;5104421;28;20474;-66
2022/04/22 02:53:39;;;;;;;10.68;4.15;;;8.10;99.90;;;;;;5106155;28;20119;-66
2022/04/22 02:56:07;;;;;;;8.60;3.70;;;8.10;99.90;;;;;;5106082;28;20077;-66
2022/04/22 02:58:33;;;;;;;5.03;4.07;;;8.10;99.90;;;;;;5104348;28;20127;-65
2022/04/22 03:00:59;;;;;;;7.10;3.30;;;8.10;99.90;;;;;;5107403;28;20070;-66
2022/04/22 03:03:25;;;;;;;7.35;3.85;;;8.10;99.90;;;;;;5109597;28;20101;-66
2022/04/22 03:05:51;;;;;;;6.60;3.35;;;8.10;99.90;;;;;;5109861;28;20497;-66
2022/04/22 03:08:17;;;;;;;5.95;3.78;;;8.20;99.90;;;;;;5109244;28;20082;-66
2022/04/22 03:10:43;;;;;;;6.85;3.72;;;8.20;99.90;;;;;;5111735;27;20043;-65
2022/04/22 03:13:09;;;;;;;11.40;3.50;;;8.20;99.90;;;;;;5129536;27;20465;-65
2022/04/22 03:15:36;;;;;;;6.65;3.72;;;8.20;99.90;;;;;;5130238;27;20039;-65
2022/04/22 03:18:02;;;;;;;8.20;3.35;;;8.20;99.90;;;;;;5109463;27;20051;-66
2022/04/22 03:20:28;;;;;;;8.52;4.10;;;8.20;99.90;;;;;;5129897;27;20054;-65
2022/04/22 03:22:54;;;;;;;12.45;3.20;;;8.20;99.90;;;;;;5129927;27;20039;-65
2022/04/22 03:25:20;;;;;;;7.25;3.55;;;8.20;99.90;;;;;;5129991;27;20477;-65
2022/04/22 03:27:46;;;;;;;6.63;3.55;;;8.20;99.90;;;;;;5109925;27;20479;-66
2022/04/22 03:30:13;;;;;;;5.22;2.90;;;8.10;99.90;;;;;;5129306;27;20493;-65
2022/04/22 03:32:38;;;;;;;8.05;3.58;;;8.10;99.90;;;;;;5129958;27;20043;-65
2022/04/22 03:35:06;;;;;;;5.32;3.35;;;8.10;99.90;;;;;;5111160;27;20374;-66
2022/04/22 03:37:31;;;;;;;6.55;3.60;;;8.10;99.90;;;;;;5110770;27;20038;-65
2022/04/22 03:39:57;;;;;;;8.80;3.63;;;8.00;99.90;;;;;;5109210;27;20043;-66
2022/04/22 03:42:23;;;;;;;6.38;3.05;;;8.00;99.90;;;;;;5111151;27;20045;-66
2022/04/22 03:44:49;;;;;;;5.38;3.20;;;8.00;99.90;;;;;;5129926;27;20606;-66
2022/04/22 03:47:15;;;;;;;10.27;2.95;;;8.00;99.90;;;;;;5129694;27;20049;-65
2022/04/22 03:49:40;;;;;;;7.18;3.75;;;8.00;99.90;;;;;;5108749;27;20122;-65
2022/04/22 03:52:06;;;;;;;7.85;3.00;;;7.90;99.90;;;;;;5129639;27;20046;-66
2022/04/22 03:54:32;;;;;;;5.50;3.50;;;8.00;99.90;;;;;;5109942;27;20107;-66
2022/04/22 03:59:42;;;;;;;5.07;2.90;;;7.90;99.90;;;;;;5109075;28;20489;-66
2022/04/22 04:02:08;;;;;;;7.55;3.25;;;7.90;99.90;;;;;;5120292;27;20043;-66
2022/04/22 04:04:34;;;;;;;7.53;2.95;;;8.00;99.90;;;;;;5129206;27;20028;-66
2022/04/22 04:06:59;;;;;;;6.93;3.05;;;8.00;99.90;;;;;;5129390;27;20039;-66
2022/04/22 04:17:38;;;;;;;6.82;3.45;;;7.70;99.90;;;;;;5110347;27;20050;-66
2022/04/22 04:25:34;;;;;;;7.95;2.80;;;7.70;99.90;;;;;;5128060;27;20050;-66
2022/04/22 04:28:00;;;;;;;7.38;3.03;;;7.60;99.90;;;;;;5110646;27;20051;-66
2022/04/22 04:30:26;;;;;;;7.53;2.63;;;7.60;99.90;;;;;;5110458;27;20038;-66
2022/04/22 04:32:51;;;;;;;4.43;2.65;;;7.60;99.90;;;;;;5128582;27;20952;-66
2022/04/22 04:35:17;;;;;;;9.80;2.83;;;7.60;99.90;;;;;;5098120;28;20047;-66
2022/04/22 04:37:43;;;;;;;6.15;2.75;;;7.60;99.90;;;;;;5072761;28;20040;-66
2022/04/22 04:40:09;;;;;;;4.65;2.45;;;7.60;99.90;;;;;;5107858;28;20465;-66
2022/04/22 04:42:35;;;;;;;5.70;2.33;;;7.60;99.90;;;;;;5089071;28;20139;-66
2022/04/22 04:45:01;;;;;;;8.70;2.85;;;7.70;99.90;;;;;;5095298;27;20122;-66
2022/04/22 04:47:27;;;;;;;4.68;2.70;;;7.70;99.90;;;;;;5109480;27;20046;-66
2022/04/22 04:49:52;;;;;;;3.60;2.38;;;7.70;99.90;;;;;;5110172;27;20035;-66
2022/04/22 04:52:18;;;;;;;7.32;2.78;;;7.80;99.90;;;;;;5128221;27;20049;-66
2022/04/22 04:54:46;;;;;;;5.50;2.40;;;7.80;99.90;;;;;;5109191;27;20126;-66
2022/04/22 04:57:11;;;;;;;4.88;2.70;;;7.80;99.90;;;;;;5128308;27;20039;-66
2022/04/22 04:59:37;;;;;;;4.43;2.42;;;7.80;99.90;;;;;;5127442;27;20047;-66
2022/04/22 05:02:03;;;;;;;3.63;2.50;;;7.80;99.90;;;;;;5109125;27;20081;-66
2022/04/22 05:04:29;;;;;;;2.72;2.10;;;7.90;99.90;;;;;;5127606;27;20103;-66
2022/04/22 05:06:54;;;;;;;3.17;2.33;;;7.90;99.90;;;;;;5106314;28;20036;-66
2022/04/22 05:09:20;;;;;;;3.35;2.25;;;7.80;99.90;;;;;;5107721;28;20052;-66
2022/04/22 05:11:46;;;;;;;4.18;2.05;;;7.90;99.90;;;;;;5106932;28;20526;-65
2022/04/22 05:14:13;;;;;;;5.32;2.33;;;7.90;99.90;;;;;;5107241;28;20548;-66
2022/04/22 05:16:39;;;;;;;3.60;2.22;;;7.90;99.90;;;;;;5116675;27;20042;-66
2022/04/22 05:19:04;;;;;;;8.05;2.20;;;8.00;99.90;;;;;;5127492;27;20166;-65
2022/04/22 05:21:30;;;;;;;3.38;2.05;;;8.00;99.90;;;;;;5127334;27;20053;-66
2022/04/22 05:23:55;;;;;;;5.88;2.30;;;8.00;99.90;;;;;;5127278;27;20039;-66
2022/04/22 05:26:23;;;;;;;4.68;2.10;;;8.10;99.90;;;;;;5127241;27;20035;-66
2022/04/22 05:28:52;;;;;;;4.47;2.03;;;8.10;99.90;;;;;;5110104;27;20035;-66
2022/04/22 05:34:02;;;;;;;6.47;2.17;;;8.20;99.90;;;;;;5109060;27;20134;-66
2022/04/22 05:36:27;;;;;;;1.80;1.70;;;8.20;99.90;;;;;;5127003;27;20135;-66
2022/04/22 05:38:53;;;;;;;9.15;2.00;;;8.20;99.90;;;;;;5126112;27;20046;-66
2022/04/22 05:41:19;;;;;;;2.38;2.08;;;8.30;99.90;;;;;;5127521;27;20491;-66
2022/04/22 05:43:46;;;;;;;4.75;2.00;;;8.40;99.90;;;;;;5109235;27;20044;-66
2022/04/22 05:46:11;;;;;;;4.25;2.13;;;8.50;99.90;;;;;;5108830;27;20054;-66
2022/04/22 05:48:39;;;;;;;4.70;2.20;;;8.60;99.90;;;;;;5106660;27;20043;-66
2022/04/22 05:51:05;;;;;;;6.63;2.20;;;8.60;99.90;;;;;;5108806;27;20110;-66
2022/04/22 05:53:30;;;;;;;3.05;2.20;;;8.60;99.90;;;;;;5127152;27;20043;-66
2022/04/22 05:55:57;;;;;;;7.18;1.77;;;8.70;99.90;;;;;;5127124;27;20557;-66
2022/04/22 05:58:23;;;;;;;13.45;3.17;;;8.60;99.90;;;;;;5104509;28;20164;-66
2022/04/22 06:00:49;;;;;;;4.22;2.10;;;8.60;99.90;;;;;;5105664;28;20063;-66
2022/04/22 06:03:15;;;;;;;3.42;1.60;;;8.70;99.90;;;;;;5108673;28;20051;-66
2022/04/22 06:05:41;;;;;;;4.53;2.28;;;8.80;99.90;;;;;;5108321;28;20058;-66
2022/04/22 06:10:53;;;;;;;2.15;1.95;;;9.00;99.90;;;;;;5126846;28;20609;-66
2022/04/22 06:13:18;;;;;;;3.20;2.10;;;9.00;99.90;;;;;;5105051;28;20418;-66
2022/04/22 06:15:45;;;;;;;2.95;1.98;;;9.00;99.90;;;;;;5106366;28;20046;-66
2022/04/22 06:18:10;;;;;;;6.25;1.77;;;9.00;99.90;;;;;;5106475;28;20131;-66
2022/04/22 06:20:36;;;;;;;7.00;1.90;;;9.00;99.90;;;;;;5105878;28;20565;-66
2022/04/22 06:23:02;;;;;;;2.88;1.70;;;9.10;99.90;;;;;;5106879;28;20072;-66
2022/04/22 06:25:28;;;;;;;2.65;2.00;;;9.30;99.90;;;;;;5105941;28;20039;-66
2022/04/22 06:27:54;;;;;;;6.25;2.30;;;9.70;99.90;;;;;;5106713;28;20088;-66
2022/04/22 06:30:22;;;;;;;3.28;1.95;;;10.10;99.00;;;;;;5106020;28;20502;-66
2022/04/22 06:32:50;;;;;;;5.72;1.77;;;10.30;96.70;;;;;;5104511;28;20043;-66
2022/04/22 06:35:18;;;;;;;5.93;2.00;;;10.40;95.10;;;;;;5108127;28;20570;-66
2022/04/22 06:37:46;;;;;;;3.20;1.88;;;10.30;96.00;;;;;;5109835;27;20085;-66
2022/04/22 06:45:47;;;;;;;4.53;2.20;;;9.90;97.10;;;;;;5109965;28;20047;-66
2022/04/22 06:48:19;;;;;;;;;;;9.90;97.30;;;;;;5110442;28;20051;-66
2022/04/22 06:50:50;;;;;;;4.95;1.90;;;10.00;98.60;;;;;;5108393;28;20006;-66
2022/04/22 06:53:17;;;;;;;8.55;1.73;;;10.00;97.60;;;;;;5109263;28;20035;-66
2022/04/22 06:55:44;;;;;;;5.22;1.88;;;10.10;96.00;;;;;;5109936;28;20044;-66
2022/04/22 06:58:12;;;;;;;3.97;2.10;;;10.10;97.80;;;;;;5109654;28;20036;-66
2022/04/22 07:00:39;;;;;;;4.22;1.35;;;10.30;96.80;;;;;;5109037;28;20142;-65
2022/04/22 07:03:05;;;;;;;3.13;1.88;;;10.30;95.90;;;;;;5110004;28;20047;-66
2022/04/22 07:05:34;;;;;;;6.22;2.08;;;10.50;97.10;;;;;;5109139;28;20031;-66
2022/04/22 07:08:02;;;;;;;2.75;2.13;;;10.80;95.50;;;;;;5109638;28;20067;-66
2022/04/22 07:10:30;;;;;;;3.38;1.83;;;11.00;95.10;;;;;;5109126;28;20032;-66
2022/04/22 07:12:57;;;;;;;2.58;2.10;;;11.20;92.30;;;;;;5121768;27;20051;-66
2022/04/22 07:15:24;;;;;;;7.22;2.35;;;11.30;93.10;;;;;;5111854;27;20400;-65
2022/04/22 07:17:50;;;;;;;3.67;2.22;;;11.50;92.50;;;;;;5129357;27;20086;-66
2022/04/22 07:20:16;;;;;;;7.80;2.13;;;11.50;91.40;;;;;;5130229;27;20063;-66
2022/04/22 07:22:44;;;;;;;6.18;2.13;;;11.60;90.70;;;;;;5129405;27;20047;-65
2022/04/22 07:25:11;;;;;;;7.15;2.25;;;11.70;90.10;;;;;;5130118;27;20047;-66
2022/04/22 07:27:39;;;;;;;3.78;2.22;;;11.70;87.90;;;;;;5110717;27;20515;-66
2022/04/22 07:30:08;;;;;;;3.80;2.22;;;11.70;89.90;;;;;;5093557;27;20047;-66
2022/04/22 07:32:46;;;;;;;6.78;2.05;;;11.90;90.10;;;;;;5129288;27;20424;-66
2022/04/22 07:35:12;;;;;;;8.57;2.65;;;12.20;91.70;;;;;;5129800;27;20043;-66
2022/04/22 07:37:39;;;;;;;10.45;2.40;;;12.30;85.70;;;;;;5111005;27;20051;-66
2022/04/22 07:40:06;;;;;;;2.85;2.00;;;12.40;88.80;;;;;;5129508;27;20054;-66
2022/04/22 07:42:34;;;;;;;6.18;2.28;;;12.40;86.90;;;;;;5128741;27;20043;-66
2022/04/22 07:47:50;;;;;;;6.82;2.40;;;12.50;78.60;;;;;;5128608;27;20055;-66
2022/04/22 07:50:18;;;;;;;5.45;1.70;;;12.60;80.70;;;;;;5129047;27;20046;-66
2022/04/22 07:52:47;;;;;;;9.60;2.17;;;12.80;81.40;;;;;;5097690;28;20151;-66
2022/04/22 07:55:14;;;;;;;5.18;2.20;;;13.00;73.90;;;;;;5096914;27;20067;-66
2022/04/22 07:57:41;;;;;;;5.50;1.80;;;13.10;75.80;;;;;;5110132;27;20045;-66
2022/04/22 08:00:09;;;;;;;4.93;1.88;;;13.20;76.80;;;;;;5128379;27;20058;-66
2022/04/22 08:02:34;;;;;;;7.32;1.90;;;13.30;76.80;;;;;;5127607;27;20057;-66
2022/04/22 08:05:00;;;;;;;3.00;1.73;;;13.40;76.80;;;;;;5129134;27;20469;-66
2022/04/22 08:07:26;;;;;;;4.93;2.10;;;13.40;77.80;;;;;;5109890;27;20115;-66
2022/04/22 08:09:52;;;;;;;7.57;2.30;;;13.60;74.60;;;;;;5128487;27;20552;-66
2022/04/22 08:12:21;;;;;;;4.82;2.00;;;13.70;74.90;;;;;;5116479;27;20054;-66
2022/04/22 08:14:47;;;;;;;2.72;1.70;;;13.70;67.70;;;;;;5090361;28;20036;-66
2022/04/22 08:17:13;;;;;;;2.53;2.00;;;13.80;75.40;;;;;;5090214;28;20143;-66
2022/04/22 08:19:40;;;;;;;9.23;1.90;;;13.90;69.10;;;;;;5108368;28;20039;-66
2022/04/22 08:22:05;;;;;;;3.30;1.85;;;14.00;65.60;;;;;;5102841;27;20050;-66
2022/04/22 08:24:31;;;;;;;7.20;1.85;;;13.90;67.90;;;;;;5109325;27;20034;-66
2022/04/22 08:26:58;;;;;;;5.93;2.00;;;14.10;74.80;;;;;;5100524;27;20501;-66
2022/04/22 08:29:24;;;;;;;6.50;2.22;;;14.20;69.20;;;;;;5120209;27;20385;-66
2022/04/22 08:31:52;;;;;;;7.47;2.30;;;14.20;68.80;;;;;;5106238;27;20043;-66
2022/04/22 08:34:18;;;;;;;3.70;2.08;;;14.30;65.30;;;;;;5096497;28;20036;-66
2022/04/22 08:36:46;;;;;;;6.03;1.75;;;14.50;68.10;;;;;;5107241;28;20043;-66
2022/04/22 08:39:12;;;;;;;6.53;2.40;;;14.70;62.00;;;;;;5107693;28;20047;-66
2022/04/22 08:41:41;;;;;;;4.38;1.90;;;14.70;58.70;;;;;;5106897;27;20046;-66
2022/04/22 08:44:11;;;;;;;3.30;1.90;;;14.70;49.10;;;;;;5111491;27;20412;-66
2022/04/22 08:52:09;;;;;;;12.85;2.25;;;14.50;57.20;;;;;;5126731;27;20082;-67
2022/04/22 08:54:37;;;;;;;2.70;1.70;;;14.50;57.30;;;;;;5107484;27;20451;-67
2022/04/22 08:57:03;;;;;;;7.18;1.63;;;14.60;55.40;;;;;;5126550;27;20118;-66
2022/04/22 08:59:29;;;;;;;4.13;1.60;;;14.50;59.90;;;;;;5123312;27;20054;-66
2022/04/22 09:01:58;;;;;;;3.35;1.67;;;14.50;62.60;;;;;;5108277;27;20051;-67
2022/04/22 09:04:26;;;;;;;3.58;1.80;;;14.60;55.70;;;;;;5109407;27;20757;-66
2022/04/22 09:06:53;;;;;;;4.15;1.55;;;14.60;58.70;;;;;;5127540;27;20047;-66
2022/04/22 09:09:19;;;;;;;5.28;1.70;;;14.70;66.50;;;;;;5109390;27;20047;-67
2022/04/22 09:11:45;;;;;;;4.45;1.73;;;14.80;66.30;;;;;;5109332;27;20474;-66
2022/04/22 09:14:20;;;;;;;6.97;2.38;;;14.90;65.90;;;;;;5127972;27;20095;-67
2022/04/22 09:16:46;;;;;;;2.72;1.50;;;14.90;61.70;;;;;;5107565;27;20557;-67
2022/04/22 09:19:12;;;;;;;4.00;1.73;;;15.00;54.90;;;;;;5127180;27;20389;-67
2022/04/22 09:21:39;;;;;;;10.10;1.83;;;15.00;54.00;;;;;;5127685;27;20393;-67
2022/04/22 09:24:14;;;;;;;8.80;1.92;;;15.10;54.00;;;;;;5109223;27;20060;-67
2022/04/22 09:26:41;;;;;;;4.85;2.25;;;14.90;60.90;;;;;;5126522;27;20043;-66
2022/04/22 09:29:07;;;;;;;5.57;1.90;;;14.90;59.00;;;;;;5127583;27;20598;-66
2022/04/22 09:31:46;;;;;;;6.50;1.80;;;15.10;62.60;;;;;;5108470;27;20081;-67
2022/04/22 09:34:12;;;;;;;4.97;1.40;;;15.30;55.00;;;;;;5127757;27;20089;-67
2022/04/22 09:44:59;;;;;;;5.70;2.10;;;15.50;53.20;;;;;;5127213;27;20122;-66
2022/04/22 09:47:29;;;;;;;3.22;1.63;;;15.50;48.60;;;;;;5127190;27;20031;-67
2022/04/22 09:49:56;;;;;;;4.45;1.88;;;15.50;58.90;;;;;;5126843;27;20092;-67
2022/04/22 09:52:29;;;;;;;3.08;1.88;;;15.60;51.90;;;;;;5109482;27;20047;-67
2022/04/22 09:54:57;;;;;;;11.48;2.10;;;15.80;54.50;;;;;;5106262;28;20379;-66
2022/04/22 09:57:23;;;;;;;3.72;2.13;;;15.80;57.50;;;;;;5108460;28;20528;-67
2022/04/22 09:59:50;;;;;;;5.45;1.90;;;15.80;53.50;;;;;;5126817;28;20074;-67
2022/04/22 10:02:21;;;;;;;4.25;1.70;;;15.70;50.10;;;;;;5107941;28;20043;-66
2022/04/22 10:04:49;;;;;;;4.40;2.10;;;15.70;51.70;;;;;;5108133;28;20050;-67
2022/04/22 10:07:16;;;;;;;6.25;2.45;;;15.90;61.90;;;;;;5103912;28;20043;-66
2022/04/22 10:09:48;;;;;;;6.93;2.13;;;16.00;50.50;;;;;;5125218;27;20121;-67
2022/04/22 10:12:18;;;;;;;3.53;1.60;;;16.10;47.40;;;;;;5111787;27;20104;-67
2022/04/22 10:14:45;;;;;;;4.10;1.73;;;16.20;61.70;;;;;;5130481;27;20054;-67
2022/04/22 10:17:12;;;;;;;5.55;2.25;;;16.40;60.10;;;;;;5131374;27;20509;-67
2022/04/22 10:19:37;;;;;;;4.13;2.25;;;16.40;56.40;;;;;;5130947;27;20119;-67
2022/04/22 10:22:04;;;;;;;2.50;2.03;;;16.30;51.50;;;;;;5130649;27;20047;-67
2022/04/22 10:24:34;;;;;;;3.92;2.00;;;16.30;52.50;;;;;;5131089;27;20070;-67
2022/04/22 10:27:02;;;;;;;7.03;2.05;;;16.30;45.80;;;;;;5111801;27;20043;-67
2022/04/22 10:29:29;;;;;;;3.30;2.05;;;16.30;50.00;;;;;;5111057;27;20043;-67
2022/04/22 10:31:56;;;;;;;4.35;1.80;;;16.30;53.40;;;;;;5110361;27;20079;-66
2022/04/22 10:34:43;;;;;;;3.53;2.03;;;16.40;47.80;;;;;;5130057;27;20473;-67
2022/04/22 10:37:24;;;;;;;3.30;2.08;;;16.40;54.30;;;;;;5094690;27;20125;-67
2022/04/22 10:39:52;;;;;;;6.90;1.88;;;16.40;42.40;;;;;;5126800;27;20050;-67
2022/04/22 10:42:18;;;;;;;9.88;2.47;;;16.30;44.60;;;;;;5130240;27;20408;-68
2022/04/22 10:47:48;;;;;;;7.22;2.00;;;16.40;50.80;;;;;;5130073;27;20054;-67
2022/04/22 10:50:55;;;;;;;4.32;2.63;;;16.40;41.50;;;;;;5111860;27;20533;-68
2022/04/22 10:53:34;;;;;;;9.05;3.75;;;16.40;48.60;;;;;;5078455;28;20059;-69
2022/04/22 10:56:25;;;;;;;4.82;2.67;;;16.60;50.90;;;;;;5109526;28;20476;-68
2022/04/22 10:59:32;;;;;;;6.28;3.50;;;16.70;46.70;;;;;;5109804;28;20036;-69
2022/04/22 11:01:58;;;;;;;5.78;2.30;;;16.70;45.10;;;;;;5119804;27;20054;-68
2022/04/22 11:04:28;;;;;;;4.72;2.20;;;16.70;41.80;;;;;;5111869;27;20039;-68
2022/04/22 11:06:55;;;;;;;8.65;2.53;;;16.70;45.20;;;;;;5130061;27;20452;-69
2022/04/22 11:09:28;;;;;;;5.80;2.20;;;16.70;44.00;;;;;;5130532;27;20116;-68
2022/04/22 11:11:55;;;;;;;7.25;2.47;;;16.80;49.20;;;;;;5129717;27;20127;-68
2022/04/22 11:14:26;;;;;;;4.85;2.17;;;16.90;49.50;;;;;;5130151;27;20054;-68
2022/04/22 11:16:54;;;;;;;8.07;2.60;;;16.80;46.40;;;;;;5129784;27;20040;-68
2022/04/22 11:19:19;;;;;;;5.85;2.85;;;16.80;54.50;;;;;;5130382;27;20035;-68
2022/04/22 11:21:58;;;;;;;5.40;2.40;;;16.90;44.20;;;;;;5093479;27;20465;-69
2022/04/22 11:24:31;;;;;;;5.27;2.40;;;16.80;46.80;;;;;;5108078;28;20079;-69
2022/04/22 11:27:06;;;;;;;2.67;2.33;;;16.70;49.70;;;;;;5108752;28;20293;-69
2022/04/22 11:29:32;;;;;;;8.48;2.17;;;16.60;48.00;;;;;;5108308;28;20048;-68
2022/04/22 11:32:22;;;;;;;9.10;2.30;;;16.50;48.70;;;;;;5109964;27;20120;-68
2022/04/22 11:34:53;;;;;;;2.42;2.05;;;16.60;51.40;;;;;;5129262;27;20043;-68
2022/04/22 11:37:21;;;;;;;4.32;2.05;;;16.70;47.60;;;;;;5109195;28;20481;-69
2022/04/22 11:39:48;;;;;;;5.47;2.30;;;16.80;46.70;;;;;;5109056;28;20047;-69
2022/04/22 11:42:15;;;;;;;5.57;2.80;;;17.00;51.00;;;;;;5090316;28;20148;-69
2022/04/22 11:44:42;;;;;;;3.00;1.90;;;17.10;56.70;;;;;;5113865;27;20098;-68
2022/04/22 11:47:08;;;;;;;4.32;2.67;;;17.20;53.40;;;;;;5129244;27;20107;-69
2022/04/22 11:49:33;;;;;;;6.78;2.25;;;17.40;59.60;;;;;;5111153;27;20043;-68
2022/04/22 11:52:00;;;;;;;8.57;2.63;;;17.30;42.50;;;;;;5108465;27;20358;-67
2022/04/22 11:54:26;;;;;;;7.68;2.90;;;17.00;40.50;;;;;;5095765;27;20046;-69
2022/04/22 11:56:53;;;;;;;4.35;2.20;;;17.10;49.90;;;;;;5127973;27;20040;-68
2022/04/22 11:59:20;;;;;;;5.38;2.00;;;17.10;47.70;;;;;;5090217;28;20457;-68
2022/04/22 12:10:00;;;;;;;5.50;2.08;;;17.40;51.50;;;;;;5129107;27;20050;-68
2022/04/22 12:12:28;;;;;;;7.53;2.70;;;17.40;46.20;;;;;;5090246;28;20051;-67
2022/04/22 12:15:07;;;;;;;5.60;2.47;;;17.60;43.70;;;;;;5108397;28;20035;-67
2022/04/22 12:17:33;;;;;;;4.10;2.40;;;17.50;38.40;;;;;;5093216;28;20100;-67
2022/04/22 12:19:59;;;;;;;8.50;2.20;;;17.60;43.30;;;;;;5089367;28;20130;-66
2022/04/22 12:22:25;;;;;;;6.63;2.47;;;17.50;45.70;;;;;;5089860;28;20044;-67
2022/04/22 12:25:10;;;;;;;6.65;2.40;;;17.60;55.50;;;;;;5108246;28;20696;-67
2022/04/22 12:27:37;;;;;;;5.55;2.40;;;17.70;47.10;;;;;;5092378;28;20487;-66
2022/04/22 12:30:08;;;;;;;4.75;2.70;;;17.70;38.10;;;;;;5086189;28;20051;-67
2022/04/22 12:32:36;;;;;;;4.35;2.40;;;17.80;45.60;;;;;;5103217;28;20116;-67
2022/04/22 12:35:17;;;;;;;4.45;2.42;;;17.80;45.70;;;;;;5089432;28;20126;-66
2022/04/22 12:37:52;;;;;;;6.25;2.95;;;17.90;46.50;;;;;;5106922;28;20043;-67
2022/04/22 12:40:19;;;;;;;12.82;3.42;;;17.80;44.70;;;;;;5107702;28;20075;-66
2022/04/22 12:42:46;;;;;;;3.35;2.15;;;17.90;43.70;;;;;;5106677;28;20051;-67
2022/04/22 12:53:47;;;;;;;3.92;2.50;;;17.90;40.00;;;;;;5107517;28;20055;-67
2022/04/22 12:56:14;;;;;;;7.05;2.55;;;17.80;42.40;;;;;;5107117;28;20493;-67
2022/04/22 12:59:00;;;;;;;9.02;2.30;;;17.70;43.90;;;;;;5101271;28;20082;-67
2022/04/22 13:01:36;;;;;;;4.72;2.70;;;17.80;48.80;;;;;;5089708;28;20420;-67
2022/04/22 13:04:06;;;;;;;4.57;2.70;;;18.20;46.50;;;;;;5105978;28;20040;-67
2022/04/22 13:06:44;;;;;;;16.42;3.20;;;18.30;38.90;;;;;;5107838;28;20044;-67
2022/04/22 13:09:15;;;;;;;3.10;2.28;;;18.20;36.70;;;;;;5107020;28;20047;-67
2022/04/22 13:11:42;;;;;;;12.88;2.97;;;18.20;37.20;;;;;;5109037;27;20097;-67
2022/04/22 13:14:09;;;;;;;9.73;3.25;;;18.20;34.60;;;;;;5127134;27;20554;-66
2022/04/22 13:16:36;;;;;;;6.32;2.50;;;17.80;31.40;;;;;;5127323;27;20046;-67
2022/04/22 13:19:04;;;;;;;7.45;2.90;;;17.60;38.90;;;;;;5127073;27;20027;-67
2022/04/22 13:21:30;;;;;;;11.80;3.33;;;17.40;39.10;;;;;;5127733;27;20408;-68
2022/04/22 13:23:57;;;;;;;13.95;3.03;;;17.50;43.30;;;;;;5127527;27;20039;-66
2022/04/22 13:26:24;;;;;;;6.28;2.55;;;17.30;39.90;;;;;;5109149;27;20051;-67
2022/04/22 13:28:50;;;;;;;4.72;2.53;;;17.40;49.20;;;;;;5109206;27;20497;-67
2022/04/22 13:31:17;;;;;;;5.13;2.85;;;17.50;50.20;;;;;;5126304;27;20042;-66
2022/04/22 13:33:43;;;;;;;8.80;3.25;;;17.70;49.80;;;;;;5127595;27;20160;-67
2022/04/22 13:36:10;;;;;;;8.38;2.60;;;17.90;41.30;;;;;;5126860;27;20092;-67
2022/04/22 13:38:37;;;;;;;6.35;3.10;;;18.00;44.90;;;;;;5127880;27;20039;-67
2022/04/22 13:41:05;;;;;;;4.75;3.25;;;18.10;40.60;;;;;;5108218;27;20126;-67
2022/04/22 13:43:32;;;;;;;4.78;3.08;;;18.10;38.10;;;;;;5127644;27;20047;-67
2022/04/22 13:54:11;;;;;;;8.20;3.00;;;17.20;51.30;;;;;;5127086;27;20043;-67
2022/04/22 13:56:38;;;;;;;15.43;3.03;;;17.50;47.60;;;;;;5127479;27;20051;-68
2022/04/22 13:59:04;;;;;;;6.97;2.42;;;18.00;46.60;;;;;;5127516;27;20458;-69
2022/04/22 14:01:30;;;;;;;6.05;2.50;;;18.20;44.50;;;;;;5126255;28;20039;-69
2022/04/22 14:03:57;;;;;;;8.43;3.10;;;18.00;40.10;;;;;;5127346;28;20378;-68
2022/04/22 14:06:24;;;;;;;9.07;3.20;;;17.60;40.90;;;;;;5109031;28;20043;-68
2022/04/22 14:08:50;;;;;;;8.60;2.78;;;17.30;44.40;;;;;;5101080;28;20040;-68
2022/04/22 14:11:17;;;;;;;5.47;2.70;;;17.00;48.30;;;;;;5102795;28;20653;-68
2022/04/22 14:13:44;;;;;;;6.93;3.15;;;16.80;51.00;;;;;;5123084;28;20051;-68
2022/04/22 14:16:09;;;;;;;7.43;2.45;;;16.90;54.40;;;;;;5088661;28;20051;-68
2022/04/22 14:18:37;;;;;;;5.00;2.67;;;17.20;53.00;;;;;;5106390;28;20043;-68